sensor_id;sensor_type;location;lat;lon;timestamp;pressure;altitude;pressure_sealevel;temperature;humidity
72707;BME280;62517;62.630;17.936;2022-07-29T09:06:30;102250.31;;;20.74;37.11
72707;BME280;62517;62.630;17.936;2022-07-29T09:09:01;102256.48;;;20.68;36.70
72707;BME280;62517;62.630;17.936;2022-07-29T09:11:32;102256.49;;;20.65;36.41
72707;BME280;62517;62.630;17.936;2022-07-29T09:14:02;102252.84;;;20.80;36.16
72707;BME280;62517;62.630;17.936;2022-07-29T09:16:46;102255.69;;;20.91;35.97
72707;BME280;62517;62.630;17.936;2022-07-29T09:19:25;102251.50;;;20.97;35.70
72707;BME280;62517;62.630;17.936;2022-07-29T09:21:55;102253.87;;;21.08;35.44
72707;BME280;62517;62.630;17.936;2022-07-29T09:24:25;102255.05;;;21.23;35.26
72707;BME280;62517;62.630;17.936;2022-07-29T09:28:55;102250.82;;;21.36;34.58
72707;BME280;62517;62.630;17.936;2022-07-29T09:31:32;102248.93;;;21.67;34.50
72707;BME280;62517;62.630;17.936;2022-07-29T09:34:02;102243.67;;;21.81;34.15
72707;BME280;62517;62.630;17.936;2022-07-29T09:38:33;102243.45;;;21.95;33.62
72707;BME280;62517;62.630;17.936;2022-07-29T09:41:03;102235.64;;;21.97;33.65
72707;BME280;62517;62.630;17.936;2022-07-29T09:43:33;102237.05;;;22.27;33.27
72707;BME280;62517;62.630;17.936;2022-07-29T09:46:10;102237.27;;;22.28;33.14
72707;BME280;62517;62.630;17.936;2022-07-29T09:48:39;102237.12;;;22.47;32.81
72707;BME280;62517;62.630;17.936;2022-07-29T09:51:17;102235.77;;;22.60;32.88
72707;BME280;62517;62.630;17.936;2022-07-29T09:53:45;102238.76;;;22.63;32.75
72707;BME280;62517;62.630;17.936;2022-07-29T09:56:15;102235.78;;;22.76;32.73
72707;BME280;62517;62.630;17.936;2022-07-29T09:58:44;102240.19;;;22.74;32.74
72707;BME280;62517;62.630;17.936;2022-07-29T10:03:11;102237.18;;;22.85;32.73
72707;BME280;62517;62.630;17.936;2022-07-29T10:43:07;102223.22;;;23.15;36.67
72707;BME280;62517;62.630;17.936;2022-07-29T10:45:45;102225.96;;;23.02;36.29
72707;BME280;62517;62.630;17.936;2022-07-29T10:48:15;102228.27;;;22.93;36.01
72707;BME280;62517;62.630;17.936;2022-07-29T10:51:01;102227.18;;;22.83;35.81
72707;BME280;62517;62.630;17.936;2022-07-29T10:53:51;102223.89;;;23.15;35.68
72707;BME280;62517;62.630;17.936;2022-07-29T10:56:24;102220.02;;;23.42;35.41
72707;BME280;62517;62.630;17.936;2022-07-29T10:59:22;102217.50;;;23.68;35.01
72707;BME280;62517;62.630;17.936;2022-07-29T11:01:53;102217.62;;;24.14;34.70
72707;BME280;62517;62.630;17.936;2022-07-29T11:05:27;102220.36;;;24.26;34.29
72707;BME280;62517;62.630;17.936;2022-07-29T11:14:56;102216.27;;;24.28;34.33
72707;BME280;62517;62.630;17.936;2022-07-29T11:17:24;102214.14;;;24.43;34.31
72707;BME280;62517;62.630;17.936;2022-07-29T11:20:31;102218.89;;;24.75;34.02
72707;BME280;62517;62.630;17.936;2022-07-29T11:23:01;102212.79;;;24.94;33.94
72707;BME280;62517;62.630;17.936;2022-07-29T11:25:35;102212.06;;;25.08;33.83
72707;BME280;62517;62.630;17.936;2022-07-29T11:28:10;102210.68;;;25.39;33.59
72707;BME280;62517;62.630;17.936;2022-07-29T11:30:48;102203.22;;;25.64;33.23
72707;BME280;62517;62.630;17.936;2022-07-29T11:33:33;102204.99;;;25.77;33.46
72707;BME280;62517;62.630;17.936;2022-07-29T11:36:11;102205.56;;;25.94;33.19
72707;BME280;62517;62.630;17.936;2022-07-29T11:38:41;102203.64;;;26.21;32.95
72707;BME280;62517;62.630;17.936;2022-07-29T11:41:26;102196.84;;;26.22;32.95
72707;BME280;62517;62.630;17.936;2022-07-29T11:43:58;102198.03;;;26.29;32.75
72707;BME280;62517;62.630;17.936;2022-07-29T11:47:00;102193.13;;;26.52;32.49
72707;BME280;62517;62.630;17.936;2022-07-29T11:49:29;102193.36;;;26.65;32.42
72707;BME280;62517;62.630;17.936;2022-07-29T11:52:00;102194.12;;;26.62;32.46
72707;BME280;62517;62.630;17.936;2022-07-29T11:54:32;102197.03;;;26.77;32.18
72707;BME280;62517;62.630;17.936;2022-07-29T11:57:02;102198.03;;;26.81;31.92
72707;BME280;62517;62.630;17.936;2022-07-29T11:59:32;102201.17;;;27.05;31.96
72707;BME280;62517;62.630;17.936;2022-07-29T12:02:08;102202.86;;;27.16;31.93
72707;BME280;62517;62.630;17.936;2022-07-29T12:04:48;102203.02;;;27.22;31.62
72707;BME280;62517;62.630;17.936;2022-07-29T12:07:17;102205.12;;;27.07;31.57
72707;BME280;62517;62.630;17.936;2022-07-29T12:09:49;102200.90;;;27.04;31.45
72707;BME280;62517;62.630;17.936;2022-07-29T12:12:18;102209.34;;;27.31;31.65
72707;BME280;62517;62.630;17.936;2022-07-29T12:14:47;102206.47;;;27.25;31.59
72707;BME280;62517;62.630;17.936;2022-07-29T12:17:34;102206.86;;;27.32;31.50
72707;BME280;62517;62.630;17.936;2022-07-29T12:20:04;102210.56;;;27.36;31.13
72707;BME280;62517;62.630;17.936;2022-07-29T12:22:37;102209.88;;;27.26;31.07
72707;BME280;62517;62.630;17.936;2022-07-29T12:25:08;102207.82;;;27.57;30.92
72707;BME280;62517;62.630;17.936;2022-07-29T12:27:38;102208.21;;;27.45;30.87
72707;BME280;62517;62.630;17.936;2022-07-29T12:30:09;102208.27;;;27.49;31.05
72707;BME280;62517;62.630;17.936;2022-07-29T12:32:42;102209.09;;;27.54;30.99
72707;BME280;62517;62.630;17.936;2022-07-29T12:35:14;102204.97;;;27.72;30.91
72707;BME280;62517;62.630;17.936;2022-07-29T12:37:44;102204.70;;;27.58;30.37
72707;BME280;62517;62.630;17.936;2022-07-29T12:40:15;102204.60;;;27.92;30.58
72707;BME280;62517;62.630;17.936;2022-07-29T12:43:05;102203.31;;;27.76;30.28
72707;BME280;62517;62.630;17.936;2022-07-29T12:45:34;102202.60;;;27.89;30.46
72707;BME280;62517;62.630;17.936;2022-07-29T12:48:05;102202.50;;;27.72;30.53
72707;BME280;62517;62.630;17.936;2022-07-29T12:50:33;102199.70;;;27.83;30.44
72707;BME280;62517;62.630;17.936;2022-07-29T12:53:12;102200.76;;;27.78;30.32
72707;BME280;62517;62.630;17.936;2022-07-29T12:55:42;102202.35;;;27.99;29.97
72707;BME280;62517;62.630;17.936;2022-07-29T12:58:12;102202.76;;;27.98;30.17
72707;BME280;62517;62.630;17.936;2022-07-29T13:00:43;102206.57;;;28.06;30.01
72707;BME280;62517;62.630;17.936;2022-07-29T13:03:25;102207.18;;;28.00;29.65
72707;BME280;62517;62.630;17.936;2022-07-29T13:05:56;102205.51;;;28.04;30.10
72707;BME280;62517;62.630;17.936;2022-07-29T13:08:24;102202.57;;;28.04;29.97
72707;BME280;62517;62.630;17.936;2022-07-29T13:10:52;102202.55;;;28.14;29.92
72707;BME280;62517;62.630;17.936;2022-07-29T13:13:21;102207.32;;;28.17;29.96
72707;BME280;62517;62.630;17.936;2022-07-29T13:16:05;102207.24;;;28.12;30.02
72707;BME280;62517;62.630;17.936;2022-07-29T13:18:35;102204.25;;;28.13;30.06
72707;BME280;62517;62.630;17.936;2022-07-29T13:21:11;102203.01;;;28.15;29.69
72707;BME280;62517;62.630;17.936;2022-07-29T13:23:41;102204.19;;;28.22;30.12
72707;BME280;62517;62.630;17.936;2022-07-29T13:26:11;102203.37;;;28.24;30.05
72707;BME280;62517;62.630;17.936;2022-07-29T13:28:39;102202.52;;;28.20;30.20
72707;BME280;62517;62.630;17.936;2022-07-29T13:31:07;102201.86;;;28.07;29.83
72707;BME280;62517;62.630;17.936;2022-07-29T13:33:35;102200.96;;;28.16;30.27
72707;BME280;62517;62.630;17.936;2022-07-29T13:36:03;102198.54;;;28.11;29.95
72707;BME280;62517;62.630;17.936;2022-07-29T13:38:32;102196.50;;;28.15;30.29
72707;BME280;62517;62.630;17.936;2022-07-29T13:41:00;102196.72;;;28.20;30.16
72707;BME280;62517;62.630;17.936;2022-07-29T13:43:28;102196.15;;;28.11;30.35
72707;BME280;62517;62.630;17.936;2022-07-29T13:45:57;102192.90;;;28.11;30.22
72707;BME280;62517;62.630;17.936;2022-07-29T13:48:25;102191.60;;;28.06;29.97
72707;BME280;62517;62.630;17.936;2022-07-29T13:50:54;102194.13;;;28.23;30.12
72707;BME280;62517;62.630;17.936;2022-07-29T13:53:23;102195.99;;;28.20;30.26
72707;BME280;62517;62.630;17.936;2022-07-29T13:55:51;102194.14;;;28.11;30.32
72707;BME280;62517;62.630;17.936;2022-07-29T13:58:20;102193.19;;;28.24;30.31
72707;BME280;62517;62.630;17.936;2022-07-29T14:00:48;102192.85;;;28.25;30.01
72707;BME280;62517;62.630;17.936;2022-07-29T14:03:16;102195.19;;;28.12;29.93
72707;BME280;62517;62.630;17.936;2022-07-29T14:05:45;102195.79;;;28.17;29.91
72707;BME280;62517;62.630;17.936;2022-07-29T14:08:15;102191.75;;;28.14;29.87
72707;BME280;62517;62.630;17.936;2022-07-29T14:10:44;102190.09;;;28.19;29.55
72707;BME280;62517;62.630;17.936;2022-07-29T14:15:23;102194.98;;;27.85;30.05
72707;BME280;62517;62.630;17.936;2022-07-29T14:17:54;102194.34;;;27.85;30.00
72707;BME280;62517;62.630;17.936;2022-07-29T14:20:23;102188.54;;;27.83;29.78
72707;BME280;62517;62.630;17.936;2022-07-29T14:32:15;102188.50;;;26.19;31.06
72707;BME280;62517;62.630;17.936;2022-07-29T14:34:43;102187.68;;;26.21;30.93
72707;BME280;62517;62.630;17.936;2022-07-29T14:37:12;102185.58;;;26.49;30.87
